Time;durP1;ratioP1;P1;durP2;ratioP2;P2;SDS_P1;SDS_P2;PMS_P1;PMS_P2;Temp;Humidity;BMP_temperature;BMP_pressure;BME280_temperature;BME280_humidity;BME280_pressure;Samples;Min_cycle;Max_cycle;Signal;HPM_P1;HPM_P2
2022/08/23 00:01:52;;;;;;;3.55;1.92;;;;;;;;;;7389219;19;20007;-81
2022/08/23 00:04:23;;;;;;;4.70;1.75;;;;;;;;;;7383992;19;20001;-80
2022/08/23 00:06:51;;;;;;;4.35;1.80;;;;;;;;;;7384430;19;19990;-80
2022/08/23 00:09:18;;;;;;;2.72;1.90;;;;;;;;;;7382320;19;20002;-80
2022/08/23 00:11:50;;;;;;;2.60;1.40;;;;;;;;;;7385076;19;20010;-81
2022/08/23 00:14:20;;;;;;;2.35;1.83;;;;;;;;;;7385644;19;20093;-80
2022/08/23 00:16:46;;;;;;;1.95;1.45;;;;;;;;;;7383422;19;20010;-81
2022/08/23 00:19:15;;;;;;;1.70;1.48;;;;;;;;;;7384383;19;20002;-81
2022/08/23 00:21:41;;;;;;;2.92;1.73;;;;;;;;;;7388695;19;19995;-81
2022/08/23 00:24:10;;;;;;;3.28;1.73;;;;;;;;;;7390160;19;20006;-80
2022/08/23 00:27:06;;;;;;;4.43;1.98;;;;;;;;;;7387357;19;20019;-80
2022/08/23 00:29:48;;;;;;;3.13;1.90;;;;;;;;;;7385716;19;20003;-81
2022/08/23 00:32:17;;;;;;;1.50;1.40;;;;;;;;;;7389881;19;19994;-81
2022/08/23 00:34:42;;;;;;;2.40;1.50;;;;;;;;;;7388277;19;20460;-82
2022/08/23 00:37:10;;;;;;;2.10;1.60;;;;;;;;;;7386742;19;20006;-80
2022/08/23 00:39:36;;;;;;;2.67;1.88;;;;;;;;;;7386640;19;19998;-81
2022/08/23 00:48:22;;;;;;;3.60;1.60;;;;;;;;;;7387392;19;20006;-82
2022/08/23 00:50:56;;;;;;;2.58;1.70;;;;;;;;;;7388182;19;19994;-81
2022/08/23 00:53:27;;;;;;;3.00;1.88;;;;;;;;;;7388198;19;19999;-81
2022/08/23 00:56:02;;;;;;;3.97;1.67;;;;;;;;;;7387109;19;20461;-79
2022/08/23 00:58:28;;;;;;;1.70;1.50;;;;;;;;;;7386402;19;19999;-80
2022/08/23 01:00:57;;;;;;;2.53;1.80;;;;;;;;;;7388121;19;20015;-80
2022/08/23 01:03:25;;;;;;;2.70;1.60;;;;;;;;;;7386684;19;19999;-80
2022/08/23 01:06:02;;;;;;;3.55;1.40;;;;;;;;;;7391595;19;20065;-80
2022/08/23 01:08:29;;;;;;;1.95;1.40;;;;;;;;;;7393705;19;20006;-81
2022/08/23 01:11:12;;;;;;;1.67;1.45;;;;;;;;;;7395036;19;20074;-80
2022/08/23 01:13:51;;;;;;;2.47;1.40;;;;;;;;;;7395638;19;20002;-80
2022/08/23 01:16:23;;;;;;;2.53;1.60;;;;;;;;;;7393288;19;20459;-79
2022/08/23 01:18:49;;;;;;;1.90;1.35;;;;;;;;;;7390891;19;20436;-83
2022/08/23 01:21:32;;;;;;;2.13;1.50;;;;;;;;;;7393804;19;20022;-82
2022/08/23 01:24:02;;;;;;;1.92;1.25;;;;;;;;;;7393036;19;20045;-81
2022/08/23 01:26:33;;;;;;;2.30;1.50;;;;;;;;;;7392708;19;20479;-79
2022/08/23 01:29:00;;;;;;;3.00;1.52;;;;;;;;;;7392789;19;20003;-79
2022/08/23 01:31:27;;;;;;;2.97;1.58;;;;;;;;;;7392519;19;20451;-80
2022/08/23 01:34:05;;;;;;;2.88;1.73;;;;;;;;;;7394339;19;20027;-80
2022/08/23 01:36:31;;;;;;;2.10;1.25;;;;;;;;;;7393659;19;20006;-79
2022/08/23 01:38:57;;;;;;;1.10;1.10;;;;;;;;;;7392763;19;20020;-80
2022/08/23 01:41:22;;;;;;;2.30;1.52;;;;;;;;;;7394287;19;19999;-81
2022/08/23 01:43:48;;;;;;;2.65;1.33;;;;;;;;;;7393220;19;20206;-79
2022/08/23 01:46:16;;;;;;;1.38;1.27;;;;;;;;;;7393038;19;20070;-80
2022/08/23 01:48:44;;;;;;;1.55;1.27;;;;;;;;;;7393187;19;20076;-81
2022/08/23 01:51:11;;;;;;;3.88;1.90;;;;;;;;;;7394339;19;19998;-80
2022/08/23 01:53:36;;;;;;;1.60;1.33;;;;;;;;;;7396852;19;20404;-81
2022/08/23 01:56:04;;;;;;;1.33;1.23;;;;;;;;;;7391580;19;20006;-80
2022/08/23 01:58:30;;;;;;;2.42;1.42;;;;;;;;;;7393077;19;19995;-81
2022/08/23 02:00:56;;;;;;;2.42;1.30;;;;;;;;;;7393687;19;20378;-80
2022/08/23 02:03:21;;;;;;;2.92;2.13;;;;;;;;;;7391450;19;20007;-82
2022/08/23 02:05:47;;;;;;;1.90;1.33;;;;;;;;;;7391094;19;20007;-82
2022/08/23 02:10:57;;;;;;;1.50;1.30;;;;;;;;;;7393526;19;20016;-81
2022/08/23 02:13:22;;;;;;;2.10;1.42;;;;;;;;;;7393511;19;20006;-81
2022/08/23 02:15:50;;;;;;;2.80;1.30;;;;;;;;;;7391012;19;20138;-81
2022/08/23 02:18:18;;;;;;;2.85;1.25;;;;;;;;;;7392496;19;20010;-79
2022/08/23 02:20:48;;;;;;;2.38;1.58;;;;;;;;;;7394610;19;20349;-80
2022/08/23 02:23:14;;;;;;;1.75;1.30;;;;;;;;;;7391173;19;20011;-80
2022/08/23 02:25:39;;;;;;;5.13;1.63;;;;;;;;;;7392225;19;20037;-80
2022/08/23 02:28:05;;;;;;;3.00;1.67;;;;;;;;;;7394058;19;20003;-80
2022/08/23 02:30:30;;;;;;;2.70;1.60;;;;;;;;;;7392643;19;19995;-80
2022/08/23 02:32:55;;;;;;;1.42;1.33;;;;;;;;;;7391575;19;20007;-80
2022/08/23 02:35:22;;;;;;;1.98;1.45;;;;;;;;;;7393040;19;20460;-81
2022/08/23 02:37:47;;;;;;;2.00;1.50;;;;;;;;;;7389783;19;20338;-79
2022/08/23 02:40:13;;;;;;;2.85;1.70;;;;;;;;;;7392845;19;20006;-79
2022/08/23 02:42:38;;;;;;;2.17;1.50;;;;;;;;;;7394165;19;20009;-80
2022/08/23 02:45:04;;;;;;;2.05;1.58;;;;;;;;;;7390100;19;20448;-82
2022/08/23 02:47:30;;;;;;;2.35;1.63;;;;;;;;;;7388583;19;20042;-81
2022/08/23 02:49:55;;;;;;;2.33;1.52;;;;;;;;;;7390796;19;20002;-81
2022/08/23 02:52:20;;;;;;;1.52;1.38;;;;;;;;;;7390136;19;20359;-81
2022/08/23 02:54:46;;;;;;;1.60;1.45;;;;;;;;;;7392374;19;20014;-80
2022/08/23 02:57:11;;;;;;;2.58;1.40;;;;;;;;;;7388929;19;20002;-81
2022/08/23 02:59:37;;;;;;;1.95;1.40;;;;;;;;;;7391222;19;20028;-82
2022/08/23 03:02:02;;;;;;;1.30;1.20;;;;;;;;;;7392643;19;20024;-81
2022/08/23 03:04:28;;;;;;;3.33;1.48;;;;;;;;;;7387860;19;20393;-81
2022/08/23 03:06:54;;;;;;;3.05;1.60;;;;;;;;;;7389617;19;20009;-81
2022/08/23 03:09:19;;;;;;;2.58;1.60;;;;;;;;;;7390050;19;19998;-80
2022/08/23 03:11:48;;;;;;;2.17;1.30;;;;;;;;;;7391381;19;20082;-80
2022/08/23 03:14:14;;;;;;;2.90;1.65;;;;;;;;;;7390990;19;20418;-80
2022/08/23 03:16:40;;;;;;;2.53;1.67;;;;;;;;;;7390068;19;20408;-80
2022/08/23 03:19:06;;;;;;;2.00;1.50;;;;;;;;;;7387377;19;19999;-81
2022/08/23 03:21:31;;;;;;;2.33;1.40;;;;;;;;;;7390725;19;19998;-81
2022/08/23 03:23:56;;;;;;;3.13;1.83;;;;;;;;;;7389277;19;20478;-79
2022/08/23 03:26:22;;;;;;;3.40;1.35;;;;;;;;;;7389379;19;20483;-80
2022/08/23 03:28:47;;;;;;;2.15;1.60;;;;;;;;;;7386821;19;20473;-80
2022/08/23 03:31:14;;;;;;;2.47;1.60;;;;;;;;;;7390781;19;20066;-80
2022/08/23 03:33:40;;;;;;;4.38;1.40;;;;;;;;;;7389880;19;20002;-81
2022/08/23 03:36:09;;;;;;;1.63;1.48;;;;;;;;;;7389030;19;20027;-80
2022/08/23 03:38:35;;;;;;;2.03;1.52;;;;;;;;;;7389109;19;20078;-79
2022/08/23 03:41:00;;;;;;;2.80;1.77;;;;;;;;;;7390091;19;20066;-80
2022/08/23 03:43:26;;;;;;;3.50;1.75;;;;;;;;;;7389681;19;20417;-80
2022/08/23 03:45:51;;;;;;;1.60;1.33;;;;;;;;;;7389576;19;20007;-80
2022/08/23 03:48:17;;;;;;;1.60;1.40;;;;;;;;;;7388295;19;20012;-81
2022/08/23 03:50:43;;;;;;;2.78;1.63;;;;;;;;;;7389516;19;20028;-81
2022/08/23 03:53:09;;;;;;;1.90;1.30;;;;;;;;;;7393045;19;20058;-80
2022/08/23 03:55:35;;;;;;;3.60;1.77;;;;;;;;;;7385238;19;20019;-81
2022/08/23 03:58:00;;;;;;;2.40;1.50;;;;;;;;;;7384314;19;20015;-81
2022/08/23 04:00:25;;;;;;;1.90;1.25;;;;;;;;;;7386974;19;20005;-80
2022/08/23 04:02:51;;;;;;;1.50;1.40;;;;;;;;;;7388130;19;20262;-81
2022/08/23 04:05:16;;;;;;;1.27;1.08;;;;;;;;;;7387900;19;20501;-81
2022/08/23 04:07:48;;;;;;;1.50;1.40;;;;;;;;;;7385796;19;19998;-79
2022/08/23 04:10:14;;;;;;;1.40;1.30;;;;;;;;;;7386147;19;19998;-80
2022/08/23 04:12:40;;;;;;;5.70;1.85;;;;;;;;;;7389769;19;20410;-80
2022/08/23 04:15:07;;;;;;;1.40;1.27;;;;;;;;;;7389772;19;20006;-80
2022/08/23 04:17:33;;;;;;;1.90;1.60;;;;;;;;;;7388279;19;20006;-81
2022/08/23 04:19:58;;;;;;;1.40;1.08;;;;;;;;;;7386435;19;20006;-80
2022/08/23 04:22:23;;;;;;;3.10;1.58;;;;;;;;;;7390005;19;20006;-81
2022/08/23 04:24:49;;;;;;;3.00;1.60;;;;;;;;;;7388098;19;20009;-80
2022/08/23 04:27:14;;;;;;;2.40;1.40;;;;;;;;;;7387838;19;20002;-80
2022/08/23 04:29:40;;;;;;;4.65;1.95;;;;;;;;;;7387908;19;20009;-81
2022/08/23 04:32:07;;;;;;;3.30;1.60;;;;;;;;;;7391731;19;20087;-81
2022/08/23 04:34:34;;;;;;;2.03;1.65;;;;;;;;;;7390108;19;20003;-81
2022/08/23 04:37:00;;;;;;;3.28;1.83;;;;;;;;;;7390330;19;20009;-81
2022/08/23 04:39:26;;;;;;;3.35;1.50;;;;;;;;;;7387096;19;20062;-80
2022/08/23 04:44:35;;;;;;;2.83;1.75;;;;;;;;;;7388194;19;20037;-81
2022/08/23 04:47:01;;;;;;;3.40;1.52;;;;;;;;;;7387665;19;20223;-81
2022/08/23 04:49:26;;;;;;;4.20;1.60;;;;;;;;;;7387141;19;19998;-78
2022/08/23 04:51:53;;;;;;;3.38;1.85;;;;;;;;;;7390355;19;20065;-81
2022/08/23 04:54:24;;;;;;;8.52;4.10;;;;;;;;;;7389997;19;20003;-80
2022/08/23 04:56:53;;;;;;;4.47;2.20;;;;;;;;;;7386712;19;20037;-79
2022/08/23 04:59:19;;;;;;;2.97;1.92;;;;;;;;;;7387087;19;20009;-82
2022/08/23 05:01:52;;;;;;;8.35;1.65;;;;;;;;;;7391287;19;19995;-83
2022/08/23 05:04:17;;;;;;;1.40;1.25;;;;;;;;;;7390226;19;20008;-82
2022/08/23 05:06:44;;;;;;;2.45;1.63;;;;;;;;;;7386054;19;20037;-82
2022/08/23 05:09:18;;;;;;;2.28;1.50;;;;;;;;;;7389452;19;20009;-84
2022/08/23 05:11:46;;;;;;;1.65;1.55;;;;;;;;;;7388209;19;20526;-83
2022/08/23 05:14:14;;;;;;;2.40;1.67;;;;;;;;;;7388356;19;19999;-83
2022/08/23 05:16:40;;;;;;;2.33;1.63;;;;;;;;;;7386003;19;20007;-83
2022/08/23 05:19:05;;;;;;;2.83;1.95;;;;;;;;;;7386859;19;20011;-84
2022/08/23 05:21:30;;;;;;;3.42;1.60;;;;;;;;;;7390853;19;19998;-83
2022/08/23 05:23:56;;;;;;;1.77;1.50;;;;;;;;;;7388052;19;20055;-83
2022/08/23 05:26:22;;;;;;;2.53;1.60;;;;;;;;;;7387623;19;20012;-84
2022/08/23 05:28:51;;;;;;;5.30;2.05;;;;;;;;;;7387146;19;20018;-84
2022/08/23 05:31:22;;;;;;;2.28;1.20;;;;;;;;;;7388954;19;19999;-82
2022/08/23 05:33:49;;;;;;;4.18;2.08;;;;;;;;;;7388748;19;20002;-81
2022/08/23 05:36:16;;;;;;;3.05;1.73;;;;;;;;;;7390510;19;20002;-79
2022/08/23 05:38:42;;;;;;;1.60;1.50;;;;;;;;;;7388348;19;20002;-82
2022/08/23 05:41:09;;;;;;;1.95;1.67;;;;;;;;;;7389812;19;19998;-83
2022/08/23 05:43:35;;;;;;;2.42;1.60;;;;;;;;;;7388388;19;20069;-81
2022/08/23 05:46:18;;;;;;;2.17;1.50;;;;;;;;;;7386178;19;20401;-83
2022/08/23 05:48:46;;;;;;;2.75;1.55;;;;;;;;;;7388336;19;20002;-83
2022/08/23 05:51:16;;;;;;;1.50;1.35;;;;;;;;;;7390053;19;20523;-83
2022/08/23 05:53:42;;;;;;;1.55;1.40;;;;;;;;;;7393736;19;20002;-84
2022/08/23 05:56:19;;;;;;;1.75;1.50;;;;;;;;;;7395460;19;20002;-84
2022/08/23 05:58:45;;;;;;;3.28;1.73;;;;;;;;;;7390992;19;20448;-84
2022/08/23 06:01:12;;;;;;;1.98;1.45;;;;;;;;;;7392656;19;20088;-85
2022/08/23 06:03:38;;;;;;;4.75;2.60;;;;;;;;;;7388692;19;20099;-85
2022/08/23 06:06:05;;;;;;;5.13;2.55;;;;;;;;;;7393209;19;20025;-84
2022/08/23 06:08:31;;;;;;;2.45;1.50;;;;;;;;;;7395160;19;20123;-71
2022/08/23 06:11:10;;;;;;;1.40;1.30;;;;;;;;;;7394539;19;20003;-73
2022/08/23 06:13:41;;;;;;;3.25;1.83;;;;;;;;;;7397218;19;19999;-70
2022/08/23 06:16:07;;;;;;;2.40;1.42;;;;;;;;;;7392931;19;20002;-72
2022/08/23 06:18:32;;;;;;;2.15;1.70;;;;;;;;;;7393523;19;20346;-72
2022/08/23 06:21:03;;;;;;;2.22;1.58;;;;;;;;;;7396016;19;20069;-72
2022/08/23 06:23:28;;;;;;;;;;;;;;;;;;7396769;19;20006;-69
2022/08/23 06:25:54;;;;;;;2.17;1.52;;;;;;;;;;7396557;19;20249;-70
2022/08/23 06:28:19;;;;;;;2.85;1.67;;;;;;;;;;7392985;19;20019;-70
2022/08/23 06:30:44;;;;;;;3.03;1.90;;;;;;;;;;7395204;19;20003;-70
2022/08/23 06:33:12;;;;;;;3.60;1.40;;;;;;;;;;7397227;19;20027;-69
2022/08/23 06:35:38;;;;;;;2.00;1.55;;;;;;;;;;7395387;19;20019;-72
2022/08/23 06:38:03;;;;;;;2.13;1.50;;;;;;;;;;7393420;19;20002;-71
2022/08/23 06:40:29;;;;;;;1.50;1.33;;;;;;;;;;7390877;19;20007;-71
2022/08/23 06:42:54;;;;;;;4.15;1.70;;;;;;;;;;7394644;19;20027;-71
2022/08/23 06:45:20;;;;;;;2.28;1.45;;;;;;;;;;7391329;19;20454;-71
2022/08/23 06:47:45;;;;;;;4.13;1.60;;;;;;;;;;7392847;19;20004;-71
2022/08/23 06:50:11;;;;;;;3.17;1.90;;;;;;;;;;7389509;19;20464;-71
2022/08/23 06:52:36;;;;;;;2.33;1.70;;;;;;;;;;7391676;19;20035;-71
2022/08/23 06:55:02;;;;;;;1.63;1.45;;;;;;;;;;7392564;19;20015;-71
2022/08/23 06:57:28;;;;;;;3.22;2.10;;;;;;;;;;7391226;19;19998;-71
2022/08/23 06:59:53;;;;;;;2.83;1.90;;;;;;;;;;7386814;19;20069;-71
2022/08/23 07:02:19;;;;;;;3.20;1.92;;;;;;;;;;7389345;19;20010;-71
2022/08/23 07:04:44;;;;;;;2.63;1.63;;;;;;;;;;7389095;19;20466;-71
2022/08/23 07:07:09;;;;;;;1.80;1.60;;;;;;;;;;7388624;19;20074;-70
2022/08/23 07:09:35;;;;;;;2.38;1.60;;;;;;;;;;7389014;19;19994;-72
2022/08/23 07:12:01;;;;;;;3.50;2.00;;;;;;;;;;7390142;19;20326;-72
2022/08/23 07:14:27;;;;;;;4.50;1.80;;;;;;;;;;7387722;19;20002;-71
2022/08/23 07:16:55;;;;;;;2.90;1.70;;;;;;;;;;7385360;19;20037;-71
2022/08/23 07:19:26;;;;;;;3.30;1.70;;;;;;;;;;7387880;19;20038;-71
2022/08/23 07:21:56;;;;;;;;;;;;;;;;;;7391671;19;20469;-70
2022/08/23 07:24:22;;;;;;;1.73;1.42;;;;;;;;;;7386747;19;19915;-70
2022/08/23 07:26:50;;;;;;;3.60;1.50;;;;;;;;;;7389056;19;20009;-70
2022/08/23 07:29:17;;;;;;;1.65;1.48;;;;;;;;;;7390613;19;20010;-70
2022/08/23 07:31:51;;;;;;;2.47;1.50;;;;;;;;;;7392716;19;20062;-70
2022/08/23 07:34:17;;;;;;;3.25;1.67;;;;;;;;;;7391720;19;19999;-70
2022/08/23 07:36:44;;;;;;;2.58;1.50;;;;;;;;;;7391057;19;20024;-70
2022/08/23 07:39:10;;;;;;;2.38;1.70;;;;;;;;;;7390910;19;20002;-70
2022/08/23 07:41:37;;;;;;;3.03;1.92;;;;;;;;;;7392100;19;20020;-70
2022/08/23 07:44:04;;;;;;;2.30;1.70;;;;;;;;;;7392752;19;19998;-69
2022/08/23 07:46:31;;;;;;;1.67;1.50;;;;;;;;;;7391968;19;20003;-70
2022/08/23 07:48:58;;;;;;;1.80;1.30;;;;;;;;;;7388967;19;20002;-71
2022/08/23 07:51:24;;;;;;;4.57;2.00;;;;;;;;;;7393306;19;20018;-70
2022/08/23 07:53:50;;;;;;;3.40;1.80;;;;;;;;;;7389379;19;20013;-70
2022/08/23 07:56:18;;;;;;;2.78;1.65;;;;;;;;;;7391381;19;20047;-71
2022/08/23 07:58:43;;;;;;;2.05;1.55;;;;;;;;;;7391069;19;20004;-70
2022/08/23 08:01:20;;;;;;;2.30;1.50;;;;;;;;;;7392039;19;20074;-71
2022/08/23 08:03:48;;;;;;;1.58;1.48;;;;;;;;;;7391089;19;20010;-70
2022/08/23 08:06:20;;;;;;;1.85;1.42;;;;;;;;;;7389430;19;20060;-70
2022/08/23 08:08:47;;;;;;;1.90;1.40;;;;;;;;;;7390307;19;20012;-70
2022/08/23 08:11:15;;;;;;;2.42;1.52;;;;;;;;;;7392247;19;20019;-70
2022/08/23 08:13:42;;;;;;;3.08;1.73;;;;;;;;;;7392730;19;20007;-71
2022/08/23 08:16:09;;;;;;;1.98;1.50;;;;;;;;;;7390747;19;19999;-71
2022/08/23 08:18:35;;;;;;;3.05;1.60;;;;;;;;;;7389275;19;20066;-71
2022/08/23 08:21:02;;;;;;;3.53;1.90;;;;;;;;;;7392634;19;20009;-71
2022/08/23 08:23:30;;;;;;;2.55;1.70;;;;;;;;;;7392561;19;19999;-71
2022/08/23 08:26:03;;;;;;;1.65;1.52;;;;;;;;;;7392046;19;19998;-70
2022/08/23 08:28:29;;;;;;;2.25;1.60;;;;;;;;;;7389684;19;20026;-70
2022/08/23 08:30:54;;;;;;;3.88;1.63;;;;;;;;;;7386422;19;19999;-71
2022/08/23 08:33:19;;;;;;;2.63;1.60;;;;;;;;;;7392207;19;20010;-70
2022/08/23 08:35:47;;;;;;;2.55;1.70;;;;;;;;;;7389671;19;20017;-70
2022/08/23 08:38:13;;;;;;;3.08;1.45;;;;;;;;;;7389987;19;20044;-69
2022/08/23 08:40:39;;;;;;;2.63;1.40;;;;;;;;;;7387717;19;20027;-69
2022/08/23 08:43:10;;;;;;;2.25;1.63;;;;;;;;;;7391617;19;20019;-70
2022/08/23 08:45:57;;;;;;;2.85;1.70;;;;;;;;;;7392205;19;20003;-70
2022/08/23 08:48:24;;;;;;;2.50;1.70;;;;;;;;;;7390972;19;20002;-71
2022/08/23 08:51:01;;;;;;;3.08;1.80;;;;;;;;;;7388880;19;20042;-70
2022/08/23 08:53:40;;;;;;;2.35;1.70;;;;;;;;;;7391746;19;20033;-70
2022/08/23 08:56:20;;;;;;;2.95;1.85;;;;;;;;;;7389017;19;19998;-70
2022/08/23 08:58:57;;;;;;;5.35;2.30;;;;;;;;;;7388690;19;20049;-70
2022/08/23 09:01:24;;;;;;;3.97;2.08;;;;;;;;;;7389690;19;20464;-70
2022/08/23 09:03:50;;;;;;;2.83;1.75;;;;;;;;;;7387946;19;20005;-71
2022/08/23 09:06:24;;;;;;;2.80;1.70;;;;;;;;;;7389336;19;19999;-70
2022/08/23 09:09:04;;;;;;;3.25;1.70;;;;;;;;;;7387823;19;20019;-71
2022/08/23 09:11:44;;;;;;;3.17;1.65;;;;;;;;;;7388615;19;19998;-71
2022/08/23 09:14:32;;;;;;;1.65;1.45;;;;;;;;;;7388350;19;20062;-70
2022/08/23 09:17:04;;;;;;;2.47;1.70;;;;;;;;;;7388170;19;20023;-70
2022/08/23 09:19:35;;;;;;;3.72;1.65;;;;;;;;;;7388412;19;20032;-70
2022/08/23 09:22:15;;;;;;;2.55;1.45;;;;;;;;;;7387880;19;20070;-71
2022/08/23 09:24:41;;;;;;;2.03;1.52;;;;;;;;;;7387793;19;19999;-70
2022/08/23 09:27:09;;;;;;;1.67;1.52;;;;;;;;;;7394710;19;20340;-71
2022/08/23 09:29:37;;;;;;;3.50;1.85;;;;;;;;;;7395402;19;20459;-69
2022/08/23 09:32:05;;;;;;;2.47;1.75;;;;;;;;;;7397202;19;20647;-70
2022/08/23 09:34:36;;;;;;;3.22;1.30;;;;;;;;;;7395801;19;20002;-70
2022/08/23 09:37:09;;;;;;;2.67;1.50;;;;;;;;;;7396720;19;20498;-70
2022/08/23 09:39:37;;;;;;;1.77;1.60;;;;;;;;;;7395337;19;20013;-70
2022/08/23 09:42:27;;;;;;;2.05;1.52;;;;;;;;;;7395434;19;20349;-71
2022/08/23 09:44:53;;;;;;;4.70;1.88;;;;;;;;;;7393053;19;19999;-71
2022/08/23 09:47:18;;;;;;;2.83;1.70;;;;;;;;;;7397333;19;20080;-69
2022/08/23 09:49:50;;;;;;;1.60;1.50;;;;;;;;;;7394340;19;20391;-70
2022/08/23 09:52:49;;;;;;;3.40;1.50;;;;;;;;;;7394934;19;20002;-71
2022/08/23 09:55:34;;;;;;;1.50;1.40;;;;;;;;;;7392377;19;20006;-71
2022/08/23 09:58:04;;;;;;;3.22;1.42;;;;;;;;;;7395308;19;20725;-70
2022/08/23 10:00:34;;;;;;;1.70;1.50;;;;;;;;;;7391592;19;20002;-70
2022/08/23 10:03:26;;;;;;;1.88;1.67;;;;;;;;;;7394331;19;20476;-69
2022/08/23 10:05:57;;;;;;;3.05;1.60;;;;;;;;;;7395000;19;20007;-70
2022/08/23 10:08:33;;;;;;;2.00;1.70;;;;;;;;;;7394769;19;19998;-70
2022/08/23 10:11:10;;;;;;;3.13;1.90;;;;;;;;;;7396916;19;20024;-71
2022/08/23 10:13:38;;;;;;;2.60;1.70;;;;;;;;;;7397545;19;20483;-70
2022/08/23 10:16:32;;;;;;;3.17;1.63;;;;;;;;;;7393009;19;20452;-71
2022/08/23 10:19:38;;;;;;;2.08;1.40;;;;;;;;;;7393668;19;20002;-71
2022/08/23 10:22:19;;;;;;;1.70;1.48;;;;;;;;;;7393852;19;20028;-69
2022/08/23 10:25:07;;;;;;;3.42;1.65;;;;;;;;;;7392349;19;20644;-71
2022/08/23 10:30:48;;;;;;;2.83;1.65;;;;;;;;;;7393667;19;20030;-70
2022/08/23 10:33:33;;;;;;;3.30;1.90;;;;;;;;;;7396352;19;20009;-70
2022/08/23 10:36:09;;;;;;;4.13;2.05;;;;;;;;;;7393464;19;20003;-69
2022/08/23 10:38:56;;;;;;;3.03;1.70;;;;;;;;;;7392291;19;19998;-68
2022/08/23 10:41:41;;;;;;;4.53;1.88;;;;;;;;;;7395526;19;20009;-70
2022/08/23 10:44:18;;;;;;;2.38;1.65;;;;;;;;;;7395604;19;20006;-69
2022/08/23 10:46:56;;;;;;;1.55;1.33;;;;;;;;;;7392770;19;20006;-70
2022/08/23 10:49:24;;;;;;;1.75;1.58;;;;;;;;;;7393368;19;20007;-71
2022/08/23 10:51:51;;;;;;;2.03;1.38;;;;;;;;;;7393813;19;20026;-70
2022/08/23 10:54:58;;;;;;;2.88;1.65;;;;;;;;;;7391872;19;20014;-70
2022/08/23 10:57:32;;;;;;;5.18;1.70;;;;;;;;;;7395104;19;20003;-69
2022/08/23 10:59:59;;;;;;;2.63;1.48;;;;;;;;;;7388326;19;20074;-70
2022/08/23 11:02:38;;;;;;;6.30;1.88;;;;;;;;;;7393070;19;20005;-69
2022/08/23 11:05:16;;;;;;;3.67;1.95;;;;;;;;;;7392415;19;20322;-71
2022/08/23 11:07:54;;;;;;;2.05;1.55;;;;;;;;;;7391432;19;20370;-71
2022/08/23 11:10:30;;;;;;;2.17;1.60;;;;;;;;;;7388343;19;20003;-71
2022/08/23 11:13:07;;;;;;;2.70;1.90;;;;;;;;;;7393146;19;20415;-70
2022/08/23 11:15:53;;;;;;;2.33;1.70;;;;;;;;;;7395283;19;20006;-70
2022/08/23 11:18:25;;;;;;;2.00;1.50;;;;;;;;;;7391426;19;20009;-70
2022/08/23 11:20:50;;;;;;;1.92;1.55;;;;;;;;;;7390139;19;20002;-70
2022/08/23 11:23:42;;;;;;;3.58;2.20;;;;;;;;;;7392459;19;19995;-70
2022/08/23 11:26:26;;;;;;;1.95;1.60;;;;;;;;;;7392471;19;20578;-70
2022/08/23 11:28:55;;;;;;;3.03;1.88;;;;;;;;;;7391380;19;19999;-70
2022/08/23 11:31:30;;;;;;;2.80;1.77;;;;;;;;;;7393667;19;19995;-70
2022/08/23 11:34:24;;;;;;;1.77;1.50;;;;;;;;;;7389679;19;19995;-69
2022/08/23 11:37:17;;;;;;;4.28;2.20;;;;;;;;;;7392583;19;20065;-70
2022/08/23 11:39:57;;;;;;;3.20;2.05;;;;;;;;;;7388995;19;20029;-70
2022/08/23 11:42:36;;;;;;;2.95;1.70;;;;;;;;;;7391851;19;19999;-69
2022/08/23 11:45:19;;;;;;;3.03;1.92;;;;;;;;;;7391322;19;20372;-70
2022/08/23 11:47:45;;;;;;;3.58;1.70;;;;;;;;;;7390486;19;19998;-69
2022/08/23 11:50:30;;;;;;;2.60;1.83;;;;;;;;;;7386731;19;20010;-70
2022/08/23 11:53:27;;;;;;;3.03;1.85;;;;;;;;;;7387249;19;20002;-68
2022/08/23 11:55:55;;;;;;;3.45;2.00;;;;;;;;;;7390851;19;20540;-69
2022/08/23 11:58:28;;;;;;;2.83;1.70;;;;;;;;;;7390659;19;19994;-70
2022/08/23 12:01:07;;;;;;;2.47;1.70;;;;;;;;;;7391395;19;19991;-69
2022/08/23 12:03:43;;;;;;;4.25;1.63;;;;;;;;;;7392752;19;20021;-68
2022/08/23 12:06:08;;;;;;;2.83;1.95;;;;;;;;;;7392170;19;20102;-70
2022/08/23 12:09:00;;;;;;;2.67;1.80;;;;;;;;;;7393156;19;20002;-70
2022/08/23 12:11:54;;;;;;;2.55;1.70;;;;;;;;;;7392720;19;19999;-69
2022/08/23 12:14:48;;;;;;;1.77;1.42;;;;;;;;;;7391935;19;20021;-70
2022/08/23 12:17:25;;;;;;;3.80;2.10;;;;;;;;;;7390754;19;20017;-70
2022/08/23 12:19:57;;;;;;;1.67;1.58;;;;;;;;;;7390108;19;20003;-70
2022/08/23 12:22:27;;;;;;;1.90;1.67;;;;;;;;;;7391398;19;20007;-68
2022/08/23 12:24:56;;;;;;;2.13;1.60;;;;;;;;;;7390355;19;20003;-71
2022/08/23 12:27:41;;;;;;;2.95;1.70;;;;;;;;;;7391608;19;20066;-70
2022/08/23 12:30:17;;;;;;;2.85;1.60;;;;;;;;;;7387914;19;20069;-71
2022/08/23 12:33:04;;;;;;;2.95;1.77;;;;;;;;;;7391887;19;20350;-69
2022/08/23 12:35:52;;;;;;;2.92;1.80;;;;;;;;;;7391135;19;20080;-70
2022/08/23 12:38:38;;;;;;;2.80;1.92;;;;;;;;;;7391547;19;20002;-70
2022/08/23 12:41:21;;;;;;;2.17;1.60;;;;;;;;;;7391412;19;20002;-70
2022/08/23 12:44:04;;;;;;;2.58;1.70;;;;;;;;;;7391199;19;20066;-70
2022/08/23 12:46:42;;;;;;;2.13;1.60;;;;;;;;;;7391372;19;19998;-69
2022/08/23 12:49:20;;;;;;;3.30;1.67;;;;;;;;;;7388417;19;20002;-70
2022/08/23 12:51:52;;;;;;;3.15;1.70;;;;;;;;;;7391404;19;20079;-69
2022/08/23 12:54:31;;;;;;;2.10;1.60;;;;;;;;;;7392088;19;20006;-69
2022/08/23 12:56:56;;;;;;;2.80;1.70;;;;;;;;;;7390803;19;19999;-68
2022/08/23 12:59:33;;;;;;;4.55;1.80;;;;;;;;;;7389253;19;20054;-69
2022/08/23 13:02:03;;;;;;;2.72;1.67;;;;;;;;;;7397493;19;20010;-70
2022/08/23 13:04:31;;;;;;;2.63;1.60;;;;;;;;;;7395591;19;19994;-69
2022/08/23 13:07:03;;;;;;;2.85;1.80;;;;;;;;;;7396894;19;20010;-70
2022/08/23 13:09:33;;;;;;;1.98;1.67;;;;;;;;;;7393910;19;20021;-69
2022/08/23 13:11:59;;;;;;;2.03;1.60;;;;;;;;;;7396008;19;20023;-68
2022/08/23 13:14:34;;;;;;;3.55;1.95;;;;;;;;;;7396484;19;19999;-70
2022/08/23 13:17:14;;;;;;;2.20;1.50;;;;;;;;;;7395664;19;20081;-68
2022/08/23 13:19:39;;;;;;;;;;;;;;;;;;7396716;19;20007;-69
2022/08/23 13:22:16;;;;;;;2.65;1.67;;;;;;;;;;7397998;19;19939;-69
2022/08/23 13:25:05;;;;;;;3.10;1.98;;;;;;;;;;7395419;19;20370;-82
2022/08/23 13:27:54;;;;;;;3.47;2.05;;;;;;;;;;7398460;19;20016;-85
2022/08/23 13:30:24;;;;;;;1.98;1.67;;;;;;;;;;7391966;19;20508;-88
2022/08/23 13:33:11;;;;;;;2.45;1.70;;;;;;;;;;7398648;19;20420;-83
2022/08/23 13:35:42;;;;;;;3.40;1.60;;;;;;;;;;7396353;19;20005;-81
2022/08/23 13:38:17;;;;;;;2.83;1.77;;;;;;;;;;7390577;19;20010;-80
2022/08/23 13:41:00;;;;;;;2.47;1.80;;;;;;;;;;7387924;19;20010;-81
2022/08/23 13:43:44;;;;;;;2.75;1.60;;;;;;;;;;7391266;19;20465;-77
2022/08/23 13:46:19;;;;;;;2.95;1.90;;;;;;;;;;7395386;19;20003;-81
2022/08/23 13:48:49;;;;;;;1.73;1.52;;;;;;;;;;7391859;19;20028;-80
2022/08/23 13:51:32;;;;;;;3.28;1.80;;;;;;;;;;7394276;19;20131;-80
2022/08/23 13:54:01;;;;;;;2.88;1.80;;;;;;;;;;7392641;19;20007;-81
2022/08/23 13:56:29;;;;;;;2.70;1.88;;;;;;;;;;7394164;19;20023;-80
2022/08/23 13:58:59;;;;;;;2.90;1.65;;;;;;;;;;7391795;19;20345;-81
2022/08/23 14:01:25;;;;;;;2.05;1.70;;;;;;;;;;7394026;19;20006;-81
2022/08/23 14:03:50;;;;;;;2.65;1.70;;;;;;;;;;7395675;19;20001;-80
2022/08/23 14:06:16;;;;;;;2.55;1.80;;;;;;;;;;7393604;19;20527;-80
2022/08/23 14:08:41;;;;;;;1.77;1.48;;;;;;;;;;7393081;19;20023;-81
2022/08/23 14:11:07;;;;;;;2.40;1.50;;;;;;;;;;7392043;19;20423;-80
2022/08/23 14:13:35;;;;;;;2.25;1.40;;;;;;;;;;7392091;19;20009;-79
2022/08/23 14:16:05;;;;;;;2.65;1.77;;;;;;;;;;7392807;19;20003;-80
2022/08/23 14:18:32;;;;;;;3.30;1.80;;;;;;;;;;7393550;19;20369;-80
2022/08/23 14:20:57;;;;;;;2.22;1.65;;;;;;;;;;7392258;19;20006;-81
2022/08/23 14:23:22;;;;;;;2.33;1.60;;;;;;;;;;7396416;19;20415;-79
2022/08/23 14:25:51;;;;;;;1.77;1.50;;;;;;;;;;7393360;19;19995;-81
2022/08/23 14:28:17;;;;;;;1.73;1.47;;;;;;;;;;7393449;19;20063;-80
2022/08/23 14:30:43;;;;;;;2.20;1.65;;;;;;;;;;7390187;19;20265;-80
2022/08/23 14:33:08;;;;;;;1.58;1.48;;;;;;;;;;7393249;19;20018;-81
2022/08/23 14:35:33;;;;;;;3.05;1.90;;;;;;;;;;7392961;19;20023;-79
2022/08/23 14:37:59;;;;;;;3.38;1.55;;;;;;;;;;7391138;19;20479;-81
2022/08/23 14:40:24;;;;;;;2.95;1.98;;;;;;;;;;7389917;19;20082;-80
2022/08/23 14:42:49;;;;;;;3.95;1.75;;;;;;;;;;7393587;19;20035;-82
2022/08/23 14:45:16;;;;;;;2.40;1.57;;;;;;;;;;7393587;19;20365;-80
2022/08/23 14:47:42;;;;;;;3.30;1.70;;;;;;;;;;7396091;19;20238;-80
2022/08/23 14:50:10;;;;;;;1.83;1.60;;;;;;;;;;7387104;19;20431;-79
2022/08/23 14:52:39;;;;;;;2.70;1.60;;;;;;;;;;7394848;19;20120;-81
2022/08/23 14:55:05;;;;;;;2.58;1.60;;;;;;;;;;7394066;19;19998;-80
2022/08/23 14:57:30;;;;;;;2.20;1.60;;;;;;;;;;7391781;19;19998;-80
2022/08/23 14:59:55;;;;;;;1.67;1.35;;;;;;;;;;7386969;19;20015;-80
2022/08/23 15:02:24;;;;;;;2.97;1.70;;;;;;;;;;7391719;19;20003;-79
2022/08/23 15:04:50;;;;;;;2.17;1.50;;;;;;;;;;7388468;19;20066;-80
2022/08/23 15:07:16;;;;;;;3.22;1.90;;;;;;;;;;7391815;19;20532;-78
2022/08/23 15:09:41;;;;;;;2.40;1.50;;;;;;;;;;7389185;19;19995;-80
2022/08/23 15:12:07;;;;;;;3.13;1.98;;;;;;;;;;7391647;19;20337;-80
2022/08/23 15:14:33;;;;;;;1.98;1.50;;;;;;;;;;7390479;19;20511;-82
2022/08/23 15:16:59;;;;;;;2.63;1.98;;;;;;;;;;7390055;19;20366;-81
2022/08/23 15:19:24;;;;;;;2.30;1.60;;;;;;;;;;7389460;19;20524;-80